Time;durP1;ratioP1;P1;durP2;ratioP2;P2;SDS_P1;SDS_P2;PMS_P1;PMS_P2;Temp;Humidity;BMP_temperature;BMP_pressure;BME280_temperature;BME280_humidity;BME280_pressure;Samples;Min_cycle;Max_cycle;Signal;HPM_P1;HPM_P2
2022/02/27 00:02:14;;;;;;;43.60;21.57;;;;;;;;;;4431650;32;20719;-56
2022/02/27 00:04:40;;;;;;;48.23;22.00;;;;;;;;;;4431031;32;20267;-57
2022/02/27 00:07:06;;;;;;;44.17;23.33;;;;;;;;;;4431249;32;20640;-57
2022/02/27 00:09:31;;;;;;;49.93;26.90;;;;;;;;;;4431483;32;20276;-56
2022/02/27 00:11:57;;;;;;;56.97;26.03;;;;;;;;;;4431351;32;20258;-57
2022/02/27 00:14:23;;;;;;;56.27;28.50;;;;;;;;;;4431194;32;20305;-56
2022/02/27 00:16:49;;;;;;;46.43;27.90;;;;;;;;;;4430745;32;20658;-56
2022/02/27 00:19:15;;;;;;;53.33;27.83;;;;;;;;;;4435124;32;20720;-58
2022/02/27 00:21:41;;;;;;;51.07;28.03;;;;;;;;;;4436528;32;20641;-55
2022/02/27 00:24:07;;;;;;;55.53;32.13;;;;;;;;;;4434661;32;20209;-57
2022/02/27 00:26:33;;;;;;;59.73;34.43;;;;;;;;;;4433614;32;20349;-55
2022/02/27 00:28:58;;;;;;;69.07;33.50;;;;;;;;;;4445907;32;20386;-57
2022/02/27 00:31:24;;;;;;;57.43;31.37;;;;;;;;;;4434033;32;20383;-54
2022/02/27 00:33:49;;;;;;;57.47;31.30;;;;;;;;;;4433968;32;20437;-56
2022/02/27 00:36:15;;;;;;;53.67;28.00;;;;;;;;;;4434046;32;20443;-55
2022/02/27 00:38:41;;;;;;;44.40;24.73;;;;;;;;;;4434134;32;20304;-57
2022/02/27 00:41:06;;;;;;;44.43;25.10;;;;;;;;;;4448425;32;20248;-54
2022/02/27 00:43:32;;;;;;;59.57;30.43;;;;;;;;;;4449088;32;20608;-55
2022/02/27 00:45:57;;;;;;;50.63;24.80;;;;;;;;;;4449484;32;20607;-56
2022/02/27 00:48:22;;;;;;;24.27;15.07;;;;;;;;;;4449389;32;20233;-55
2022/02/27 00:50:48;;;;;;;24.90;13.10;;;;;;;;;;4447085;32;20304;-57
2022/02/27 00:53:13;;;;;;;20.60;12.47;;;;;;;;;;4433772;32;20224;-57
2022/02/27 00:55:41;;;;;;;19.77;13.20;;;;;;;;;;4433548;32;20292;-57
2022/02/27 00:58:07;;;;;;;21.77;12.60;;;;;;;;;;4433710;32;20237;-57
2022/02/27 01:00:32;;;;;;;21.10;13.17;;;;;;;;;;4433807;32;20237;-57
2022/02/27 01:02:58;;;;;;;37.53;16.93;;;;;;;;;;4433752;32;20277;-57
2022/02/27 01:05:23;;;;;;;34.17;18.07;;;;;;;;;;4432121;32;20260;-57
2022/02/27 01:07:49;;;;;;;36.97;16.77;;;;;;;;;;4433684;32;20205;-57
2022/02/27 01:10:14;;;;;;;26.70;14.63;;;;;;;;;;4433479;32;20335;-57
2022/02/27 01:12:39;;;;;;;24.30;12.80;;;;;;;;;;4433586;32;20232;-57
2022/02/27 01:15:07;;;;;;;23.50;12.70;;;;;;;;;;4433500;32;20334;-57
2022/02/27 01:17:33;;;;;;;19.30;12.60;;;;;;;;;;4433621;32;20272;-56
2022/02/27 01:19:58;;;;;;;20.60;11.17;;;;;;;;;;4438298;32;20244;-56
2022/02/27 01:22:24;;;;;;;21.50;12.93;;;;;;;;;;4433207;32;20287;-57
2022/02/27 01:24:49;;;;;;;19.40;12.00;;;;;;;;;;4431405;32;20319;-57
2022/02/27 01:27:15;;;;;;;20.90;11.50;;;;;;;;;;4430420;32;20279;-56
2022/02/27 01:29:40;;;;;;;21.03;12.00;;;;;;;;;;4433471;32;20329;-57
2022/02/27 01:32:06;;;;;;;19.80;11.33;;;;;;;;;;4433380;32;20268;-57
2022/02/27 01:34:32;;;;;;;28.33;12.67;;;;;;;;;;4432987;32;20723;-56
2022/02/27 01:36:58;;;;;;;22.13;12.33;;;;;;;;;;4433192;32;20321;-57
2022/02/27 01:39:24;;;;;;;19.10;11.93;;;;;;;;;;4436724;32;20342;-57
2022/02/27 01:41:50;;;;;;;19.50;12.30;;;;;;;;;;4448805;32;20552;-57
2022/02/27 01:44:15;;;;;;;24.80;12.87;;;;;;;;;;4448962;32;20725;-57
2022/02/27 01:47:02;;;;;;;20.10;13.50;;;;;;;;;;4448615;32;20241;-57
2022/02/27 01:49:28;;;;;;;18.53;12.27;;;;;;;;;;4448549;32;20641;-57
2022/02/27 01:51:54;;;;;;;22.17;13.17;;;;;;;;;;4448812;32;20704;-55
2022/02/27 01:54:21;;;;;;;19.50;12.53;;;;;;;;;;4448657;32;20279;-55
2022/02/27 01:56:47;;;;;;;23.83;13.73;;;;;;;;;;4448648;32;20244;-55
2022/02/27 01:59:13;;;;;;;33.23;16.73;;;;;;;;;;4448611;32;20318;-55
2022/02/27 02:01:39;;;;;;;32.43;19.37;;;;;;;;;;4448394;32;20297;-55
2022/02/27 02:04:04;;;;;;;35.93;19.33;;;;;;;;;;4448542;32;20687;-55
2022/02/27 02:06:30;;;;;;;36.63;20.07;;;;;;;;;;4448479;32;20323;-55
2022/02/27 02:08:55;;;;;;;32.00;18.80;;;;;;;;;;4448412;32;20301;-55
2022/02/27 02:11:21;;;;;;;25.70;17.30;;;;;;;;;;4448503;32;20240;-54
2022/02/27 02:13:46;;;;;;;23.70;13.43;;;;;;;;;;4448353;32;20318;-55
2022/02/27 02:16:12;;;;;;;22.13;14.03;;;;;;;;;;4448323;32;20240;-55
2022/02/27 02:18:38;;;;;;;27.63;15.10;;;;;;;;;;4448039;32;20299;-55
2022/02/27 02:21:04;;;;;;;28.10;14.80;;;;;;;;;;4447759;32;20252;-55
2022/02/27 02:23:30;;;;;;;31.10;15.90;;;;;;;;;;4448505;32;20530;-56
2022/02/27 02:25:55;;;;;;;31.47;15.47;;;;;;;;;;4447871;32;20353;-55
2022/02/27 02:28:21;;;;;;;21.97;13.63;;;;;;;;;;4447924;32;20306;-54
2022/02/27 02:30:47;;;;;;;24.30;14.97;;;;;;;;;;4448315;32;20285;-55
2022/02/27 02:33:12;;;;;;;18.50;11.60;;;;;;;;;;4447865;32;20350;-55
2022/02/27 02:35:38;;;;;;;16.23;11.60;;;;;;;;;;4448048;32;20538;-54
2022/02/27 02:38:05;;;;;;;20.50;11.37;;;;;;;;;;4448599;32;20208;-57
2022/02/27 02:40:30;;;;;;;20.93;11.27;;;;;;;;;;4447983;32;20227;-56
2022/02/27 02:42:56;;;;;;;22.00;11.33;;;;;;;;;;4447495;32;20301;-56
2022/02/27 02:45:21;;;;;;;16.97;11.20;;;;;;;;;;4447826;32;20260;-56
2022/02/27 02:47:48;;;;;;;27.40;10.93;;;;;;;;;;4447536;32;20331;-56
2022/02/27 02:50:15;;;;;;;21.13;10.27;;;;;;;;;;4448278;32;20254;-56
2022/02/27 02:52:41;;;;;;;16.20;10.70;;;;;;;;;;4447763;32;20263;-56
2022/02/27 02:55:10;;;;;;;23.17;10.50;;;;;;;;;;4447877;32;20285;-58
2022/02/27 02:57:35;;;;;;;18.30;10.57;;;;;;;;;;4447519;32;20359;-56
2022/02/27 03:00:02;;;;;;;16.53;10.07;;;;;;;;;;4446555;32;20244;-56
2022/02/27 03:02:27;;;;;;;17.53;10.20;;;;;;;;;;4446232;32;20232;-57
2022/02/27 03:04:53;;;;;;;18.73;10.77;;;;;;;;;;4447924;32;20736;-57
2022/02/27 03:07:19;;;;;;;16.37;10.17;;;;;;;;;;4447696;32;20242;-57
2022/02/27 03:09:44;;;;;;;16.77;10.53;;;;;;;;;;4447508;32;20231;-57
2022/02/27 03:12:10;;;;;;;16.40;10.43;;;;;;;;;;4447383;32;20242;-56
2022/02/27 03:14:35;;;;;;;21.37;10.87;;;;;;;;;;4447653;32;21334;-57
2022/02/27 03:17:01;;;;;;;15.80;10.27;;;;;;;;;;4447505;32;20244;-56
2022/02/27 03:19:26;;;;;;;18.07;10.23;;;;;;;;;;4444499;32;20301;-56
2022/02/27 03:21:51;;;;;;;20.03;9.97;;;;;;;;;;4445136;32;20727;-57
2022/02/27 03:24:17;;;;;;;22.63;11.73;;;;;;;;;;4447611;32;20827;-56
2022/02/27 03:26:45;;;;;;;17.83;10.73;;;;;;;;;;4434047;32;20274;-57
2022/02/27 03:29:10;;;;;;;16.13;10.20;;;;;;;;;;4431862;32;20278;-56
2022/02/27 03:31:36;;;;;;;18.03;11.50;;;;;;;;;;4432103;32;20355;-56
2022/02/27 03:34:02;;;;;;;18.67;12.17;;;;;;;;;;4432193;32;20280;-56
2022/02/27 03:36:27;;;;;;;19.70;12.77;;;;;;;;;;4431791;32;20551;-56
2022/02/27 03:38:53;;;;;;;17.37;11.37;;;;;;;;;;4433528;32;20382;-56
2022/02/27 03:41:18;;;;;;;20.27;13.07;;;;;;;;;;4446898;32;20228;-56
2022/02/27 03:43:43;;;;;;;25.57;14.57;;;;;;;;;;4447418;32;20396;-56
2022/02/27 03:46:09;;;;;;;23.07;12.20;;;;;;;;;;4446329;32;20243;-56
2022/02/27 03:48:34;;;;;;;20.47;12.37;;;;;;;;;;4446805;32;20362;-56
2022/02/27 03:51:00;;;;;;;25.10;14.03;;;;;;;;;;4446183;32;20235;-57
2022/02/27 03:53:25;;;;;;;25.47;15.20;;;;;;;;;;4445795;32;20225;-56
2022/02/27 03:55:51;;;;;;;37.60;22.73;;;;;;;;;;4447909;32;20224;-57
2022/02/27 03:58:17;;;;;;;40.50;21.07;;;;;;;;;;4449138;32;20314;-57
2022/02/27 04:00:43;;;;;;;32.20;16.97;;;;;;;;;;4450435;32;20581;-57
2022/02/27 04:03:10;;;;;;;23.27;15.07;;;;;;;;;;4450096;32;20235;-57
2022/02/27 04:05:36;;;;;;;22.77;14.33;;;;;;;;;;4449007;32;20618;-57
2022/02/27 04:08:03;;;;;;;21.10;14.70;;;;;;;;;;4450696;32;20642;-57
2022/02/27 04:10:30;;;;;;;22.23;12.40;;;;;;;;;;4450193;32;20262;-57
2022/02/27 04:12:55;;;;;;;24.47;13.00;;;;;;;;;;4450163;32;20734;-57
2022/02/27 04:15:21;;;;;;;17.87;12.53;;;;;;;;;;4449912;32;20232;-57
2022/02/27 04:17:46;;;;;;;22.83;13.97;;;;;;;;;;4449746;32;20235;-57
2022/02/27 04:20:12;;;;;;;25.33;14.13;;;;;;;;;;4448670;32;20707;-57
2022/02/27 04:22:37;;;;;;;17.67;11.73;;;;;;;;;;4449710;32;20263;-57
2022/02/27 04:25:03;;;;;;;17.47;11.63;;;;;;;;;;4446666;32;20240;-56
2022/02/27 04:27:29;;;;;;;20.37;11.93;;;;;;;;;;4420262;32;20274;-57
2022/02/27 04:29:54;;;;;;;19.33;12.53;;;;;;;;;;4434566;32;20331;-57
2022/02/27 04:32:20;;;;;;;21.53;12.87;;;;;;;;;;4434445;32;20363;-57
2022/02/27 04:34:46;;;;;;;22.67;12.53;;;;;;;;;;4434302;32;20297;-57
2022/02/27 04:37:11;;;;;;;23.93;11.23;;;;;;;;;;4434246;32;20216;-57
2022/02/27 04:39:37;;;;;;;22.23;13.63;;;;;;;;;;4440484;32;20257;-56
2022/02/27 04:42:03;;;;;;;25.30;14.87;;;;;;;;;;4449862;32;20511;-55
2022/02/27 04:44:29;;;;;;;23.90;14.97;;;;;;;;;;4449594;32;20327;-55
2022/02/27 04:46:55;;;;;;;25.13;13.77;;;;;;;;;;4450034;32;20367;-55
2022/02/27 04:49:21;;;;;;;23.13;12.73;;;;;;;;;;4448889;32;20372;-56
2022/02/27 04:51:46;;;;;;;17.73;11.73;;;;;;;;;;4448952;32;20237;-55
2022/02/27 04:54:12;;;;;;;20.37;13.30;;;;;;;;;;4448670;32;20303;-55
2022/02/27 04:56:37;;;;;;;21.53;12.57;;;;;;;;;;4448270;32;20283;-56
2022/02/27 04:59:03;;;;;;;15.33;10.90;;;;;;;;;;4448670;32;20347;-55
2022/02/27 05:01:29;;;;;;;19.53;12.13;;;;;;;;;;4448498;32;20650;-55
2022/02/27 05:03:54;;;;;;;19.70;12.53;;;;;;;;;;4447468;32;20803;-57
2022/02/27 05:06:20;;;;;;;18.73;12.67;;;;;;;;;;4447199;32;20308;-55
2022/02/27 05:08:45;;;;;;;19.73;12.13;;;;;;;;;;4448424;32;20686;-57
2022/02/27 05:11:11;;;;;;;21.50;15.20;;;;;;;;;;4447958;32;20740;-56
2022/02/27 05:13:37;;;;;;;30.83;16.27;;;;;;;;;;4448274;32;20288;-55
2022/02/27 05:16:02;;;;;;;21.47;14.50;;;;;;;;;;4448468;32;20251;-55
2022/02/27 05:18:28;;;;;;;26.23;15.07;;;;;;;;;;4448562;32;20703;-56
2022/02/27 05:20:53;;;;;;;28.43;15.93;;;;;;;;;;4448138;32;20305;-56
2022/02/27 05:23:18;;;;;;;27.27;16.53;;;;;;;;;;4446872;32;20244;-54
2022/02/27 05:25:44;;;;;;;29.20;16.17;;;;;;;;;;4440486;32;20398;-55
2022/02/27 05:28:09;;;;;;;24.13;16.00;;;;;;;;;;4432691;32;20277;-55
2022/02/27 05:30:35;;;;;;;27.27;17.33;;;;;;;;;;4432607;32;21048;-55
2022/02/27 05:33:00;;;;;;;19.57;12.83;;;;;;;;;;4443822;32;20241;-56
2022/02/27 05:35:26;;;;;;;21.43;12.93;;;;;;;;;;4444056;32;20261;-57
2022/02/27 05:37:51;;;;;;;19.60;13.27;;;;;;;;;;4432195;32;20224;-57
2022/02/27 05:40:17;;;;;;;26.67;15.23;;;;;;;;;;4442776;32;20241;-56
2022/02/27 05:42:43;;;;;;;20.30;14.03;;;;;;;;;;4446340;32;20711;-56
2022/02/27 05:45:09;;;;;;;22.90;14.03;;;;;;;;;;4447839;32;20224;-55
2022/02/27 05:47:35;;;;;;;25.80;14.83;;;;;;;;;;4447517;32;20339;-57
2022/02/27 05:50:01;;;;;;;23.97;15.50;;;;;;;;;;4448783;32;20260;-56
2022/02/27 05:52:26;;;;;;;30.73;17.60;;;;;;;;;;4446886;32;20236;-57
2022/02/27 05:54:52;;;;;;;17.90;13.73;;;;;;;;;;4448738;32;20232;-57
2022/02/27 05:57:17;;;;;;;26.33;14.80;;;;;;;;;;4448075;32;20266;-57
2022/02/27 05:59:43;;;;;;;27.47;16.13;;;;;;;;;;4448531;32;20498;-56
2022/02/27 06:02:09;;;;;;;27.27;16.07;;;;;;;;;;4448236;32;20605;-56
2022/02/27 06:04:34;;;;;;;37.77;16.50;;;;;;;;;;4448413;32;20688;-56
2022/02/27 06:07:00;;;;;;;25.87;17.33;;;;;;;;;;4447836;32;20692;-56
2022/02/27 06:09:26;;;;;;;30.87;17.10;;;;;;;;;;4447583;32;20228;-56
2022/02/27 06:11:52;;;;;;;30.80;17.67;;;;;;;;;;4448290;32;20240;-56
2022/02/27 06:14:17;;;;;;;35.03;18.87;;;;;;;;;;4446262;32;20362;-57
2022/02/27 06:16:43;;;;;;;32.13;20.73;;;;;;;;;;4446210;32;20201;-56
2022/02/27 06:19:08;;;;;;;35.70;21.70;;;;;;;;;;4446341;32;20264;-55
2022/02/27 06:21:34;;;;;;;38.33;21.33;;;;;;;;;;4438889;32;20565;-56
2022/02/27 06:23:59;;;;;;;33.57;19.97;;;;;;;;;;4447782;32;20339;-56
2022/02/27 06:26:25;;;;;;;35.20;22.53;;;;;;;;;;4447781;32;20625;-56
2022/02/27 06:28:50;;;;;;;44.03;22.87;;;;;;;;;;4446871;32;20466;-57
2022/02/27 06:31:16;;;;;;;38.00;23.13;;;;;;;;;;4447772;32;20303;-56
2022/02/27 06:33:41;;;;;;;42.40;24.17;;;;;;;;;;4448205;32;20367;-56
2022/02/27 06:36:07;;;;;;;46.30;26.70;;;;;;;;;;4447842;32;20363;-57
2022/02/27 06:38:34;;;;;;;52.07;28.90;;;;;;;;;;4447396;32;20295;-57
2022/02/27 06:41:00;;;;;;;58.13;32.63;;;;;;;;;;4447754;32;20221;-57
2022/02/27 06:43:27;;;;;;;42.03;24.43;;;;;;;;;;4447589;32;20627;-57
2022/02/27 06:45:53;;;;;;;38.20;23.27;;;;;;;;;;4446278;32;20354;-57
2022/02/27 06:48:18;;;;;;;39.57;24.03;;;;;;;;;;4446513;32;20228;-57
2022/02/27 06:50:44;;;;;;;34.93;21.70;;;;;;;;;;4447553;32;20589;-56
2022/02/27 06:53:10;;;;;;;33.50;21.40;;;;;;;;;;4446127;32;20254;-56
2022/02/27 06:55:36;;;;;;;41.23;24.27;;;;;;;;;;4447544;32;20516;-56
2022/02/27 06:58:01;;;;;;;42.47;25.73;;;;;;;;;;4447573;32;20219;-56
2022/02/27 07:00:27;;;;;;;39.77;24.93;;;;;;;;;;4447480;32;20224;-57
2022/02/27 07:02:54;;;;;;;49.77;26.80;;;;;;;;;;4447073;32;20244;-56
2022/02/27 07:05:19;;;;;;;54.93;31.87;;;;;;;;;;4447640;32;20220;-57
2022/02/27 07:07:45;;;;;;;36.43;26.03;;;;;;;;;;4447483;32;20730;-57
2022/02/27 07:10:10;;;;;;;48.93;27.80;;;;;;;;;;4447180;32;20229;-56
2022/02/27 07:12:37;;;;;;;43.13;29.10;;;;;;;;;;4447228;32;20259;-55
2022/02/27 07:15:05;;;;;;;61.07;35.97;;;;;;;;;;4447134;32;20220;-57
2022/02/27 07:17:30;;;;;;;54.27;31.27;;;;;;;;;;4445757;32;20217;-56
2022/02/27 07:19:56;;;;;;;45.13;29.47;;;;;;;;;;4441626;32;20292;-55
2022/02/27 07:22:21;;;;;;;38.13;23.70;;;;;;;;;;4440281;32;20228;-56
2022/02/27 07:24:48;;;;;;;41.13;24.10;;;;;;;;;;4445147;32;20308;-56
2022/02/27 07:27:14;;;;;;;53.03;28.80;;;;;;;;;;4431586;32;20512;-55
2022/02/27 07:29:42;;;;;;;53.90;30.13;;;;;;;;;;4431095;32;20287;-56
2022/02/27 07:32:11;;;;;;;60.27;34.87;;;;;;;;;;4430169;32;20244;-57
2022/02/27 07:34:43;;;;;;;62.60;36.40;;;;;;;;;;4430548;32;20623;-56
2022/02/27 07:37:09;;;;;;;74.37;38.33;;;;;;;;;;4431268;32;20287;-55
2022/02/27 07:39:34;;;;;;;57.60;35.70;;;;;;;;;;4437512;32;20755;-54
2022/02/27 07:42:00;;;;;;;53.63;29.93;;;;;;;;;;4447469;32;20232;-55
2022/02/27 07:44:27;;;;;;;55.57;32.20;;;;;;;;;;4445685;32;20323;-55
2022/02/27 07:46:53;;;;;;;29.17;16.87;;;;;;;;;;4446939;32;20276;-56
2022/02/27 07:49:18;;;;;;;30.37;17.90;;;;;;;;;;4446285;32;20948;-55
2022/02/27 07:51:44;;;;;;;32.70;22.13;;;;;;;;;;4447026;32;20608;-56
2022/02/27 07:54:09;;;;;;;40.93;26.03;;;;;;;;;;4447109;32;20297;-56
2022/02/27 07:56:35;;;;;;;42.77;25.83;;;;;;;;;;4445773;32;20384;-56
2022/02/27 07:59:02;;;;;;;49.23;26.67;;;;;;;;;;4443758;32;20307;-56
2022/02/27 08:01:29;;;;;;;48.90;25.10;;;;;;;;;;4445116;32;20228;-56
2022/02/27 08:03:58;;;;;;;46.20;24.50;;;;;;;;;;4446311;32;20714;-56
2022/02/27 08:06:23;;;;;;;44.33;26.77;;;;;;;;;;4446886;32;20729;-56
2022/02/27 08:08:49;;;;;;;258.43;130.83;;;;;;;;;;4446811;32;20288;-57
2022/02/27 08:11:14;;;;;;;48.83;26.03;;;;;;;;;;4446050;32;20336;-57
2022/02/27 08:13:40;;;;;;;7.60;5.90;;;;;;;;;;4444889;32;20276;-56
2022/02/27 08:16:06;;;;;;;10.57;6.40;;;;;;;;;;4446793;32;20294;-56
2022/02/27 08:18:31;;;;;;;13.93;7.73;;;;;;;;;;4446394;32;20201;-57
2022/02/27 08:20:58;;;;;;;8.47;5.87;;;;;;;;;;4445027;32;20250;-56
2022/02/27 08:23:24;;;;;;;6.40;4.80;;;;;;;;;;4445605;32;20290;-57
2022/02/27 08:25:52;;;;;;;9.40;6.07;;;;;;;;;;4438565;32;20256;-57
2022/02/27 08:28:18;;;;;;;4.23;3.00;;;;;;;;;;4430646;32;20209;-57
2022/02/27 08:30:43;;;;;;;7.07;4.60;;;;;;;;;;4430529;32;20228;-55
2022/02/27 08:33:09;;;;;;;8.70;4.90;;;;;;;;;;4431366;32;20208;-55
2022/02/27 08:35:34;;;;;;;7.97;5.60;;;;;;;;;;4430285;32;20311;-55
2022/02/27 08:38:00;;;;;;;8.90;6.03;;;;;;;;;;4429942;32;20603;-55
2022/02/27 08:40:26;;;;;;;9.23;5.90;;;;;;;;;;4442011;32;20274;-55
2022/02/27 08:42:53;;;;;;;9.33;4.83;;;;;;;;;;4448759;32;20233;-55
2022/02/27 08:45:19;;;;;;;8.37;4.73;;;;;;;;;;4449502;32;20240;-56
2022/02/27 08:47:44;;;;;;;5.93;4.53;;;;;;;;;;4448154;32;20346;-57
2022/02/27 08:50:10;;;;;;;7.83;5.20;;;;;;;;;;4449004;32;20299;-57
2022/02/27 08:52:36;;;;;;;6.00;5.03;;;;;;;;;;4449351;32;20703;-55
2022/02/27 08:55:02;;;;;;;8.40;5.27;;;;;;;;;;4448839;32;20685;-54
2022/02/27 08:57:28;;;;;;;8.90;5.70;;;;;;;;;;4449133;32;20196;-55
2022/02/27 08:59:53;;;;;;;3.83;3.37;;;;;;;;;;4448302;32;20300;-55
2022/02/27 09:02:19;;;;;;;7.23;4.70;;;;;;;;;;4448278;32;20258;-55
2022/02/27 09:04:45;;;;;;;6.50;4.93;;;;;;;;;;4449551;32;20275;-55
2022/02/27 09:07:10;;;;;;;8.17;4.33;;;;;;;;;;4447709;32;20307;-55
2022/02/27 09:09:36;;;;;;;17.63;8.67;;;;;;;;;;4448159;32;20359;-56
2022/02/27 09:12:07;;;;;;;36.17;15.00;;;;;;;;;;4445872;32;20324;-56
2022/02/27 09:14:33;;;;;;;66.33;25.77;;;;;;;;;;4447235;32;20649;-55
2022/02/27 09:16:59;;;;;;;22.73;10.70;;;;;;;;;;4447353;32;20212;-54
2022/02/27 09:19:25;;;;;;;12.37;7.80;;;;;;;;;;4447664;32;20699;-56
2022/02/27 09:21:50;;;;;;;19.27;9.37;;;;;;;;;;4448464;32;20373;-55
2022/02/27 09:24:16;;;;;;;52.33;17.83;;;;;;;;;;4448797;32;20347;-56
2022/02/27 09:26:45;;;;;;;15.47;8.80;;;;;;;;;;4435048;32;20241;-56
2022/02/27 09:29:13;;;;;;;16.50;7.63;;;;;;;;;;4433555;32;20231;-54
2022/02/27 09:31:39;;;;;;;24.63;14.10;;;;;;;;;;4433536;32;20268;-55
2022/02/27 09:34:05;;;;;;;8.47;5.57;;;;;;;;;;4433986;32;20338;-55
2022/02/27 09:36:31;;;;;;;27.53;16.93;;;;;;;;;;4433635;32;20232;-56
2022/02/27 09:38:57;;;;;;;43.30;18.37;;;;;;;;;;4433321;32;20346;-57
2022/02/27 09:41:22;;;;;;;60.60;32.33;;;;;;;;;;4433510;32;20255;-57
2022/02/27 09:43:54;;;;;;;13.23;8.30;;;;;;;;;;4433532;32;20276;-57
2022/02/27 09:46:20;;;;;;;13.63;8.47;;;;;;;;;;4433613;32;20257;-56
2022/02/27 09:48:46;;;;;;;19.03;10.17;;;;;;;;;;4433005;32;20247;-57
2022/02/27 09:51:13;;;;;;;35.37;17.67;;;;;;;;;;4432697;32;20237;-56
2022/02/27 09:53:39;;;;;;;6.93;3.77;;;;;;;;;;4430526;32;20232;-57
2022/02/27 09:56:04;;;;;;;15.50;8.77;;;;;;;;;;4433131;32;20341;-56
2022/02/27 09:58:30;;;;;;;12.70;9.47;;;;;;;;;;4433067;32;20224;-56
2022/02/27 10:00:55;;;;;;;17.40;9.60;;;;;;;;;;4433250;32;20386;-55
2022/02/27 10:03:31;;;;;;;14.97;8.83;;;;;;;;;;4433147;32;20574;-56
2022/02/27 10:06:05;;;;;;;9.83;6.63;;;;;;;;;;4433006;32;20220;-56
2022/02/27 10:08:46;;;;;;;18.07;11.97;;;;;;;;;;4431162;32;20239;-56
2022/02/27 10:11:17;;;;;;;12.80;7.20;;;;;;;;;;4441703;32;20668;-56
2022/02/27 10:13:44;;;;;;;15.73;8.13;;;;;;;;;;4447242;32;20240;-56
2022/02/27 10:16:11;;;;;;;7.67;5.40;;;;;;;;;;4447129;32;20249;-55
2022/02/27 10:18:45;;;;;;;6.10;4.07;;;;;;;;;;4448337;32;20770;-57
2022/02/27 10:21:25;;;;;;;13.63;9.30;;;;;;;;;;4448327;32;20420;-56
2022/02/27 10:24:08;;;;;;;6.73;4.03;;;;;;;;;;4448454;32;20255;-57
2022/02/27 10:26:37;;;;;;;13.83;8.50;;;;;;;;;;4446718;32;20268;-56
2022/02/27 10:29:16;;;;;;;34.73;19.60;;;;;;;;;;4448218;32;20238;-56
2022/02/27 10:31:47;;;;;;;13.17;8.20;;;;;;;;;;4448247;32;20291;-55
2022/02/27 10:34:22;;;;;;;18.73;6.40;;;;;;;;;;4446263;32;20247;-54
2022/02/27 10:37:07;;;;;;;11.37;7.43;;;;;;;;;;4446218;32;20263;-54
2022/02/27 10:39:44;;;;;;;10.90;8.80;;;;;;;;;;4447330;32;20243;-55
2022/02/27 10:42:13;;;;;;;9.10;6.40;;;;;;;;;;4448040;32;20639;-55
2022/02/27 10:44:42;;;;;;;12.93;7.23;;;;;;;;;;4448273;32;20285;-57
2022/02/27 10:47:17;;;;;;;11.97;6.60;;;;;;;;;;4447191;32;20267;-54
2022/02/27 10:49:43;;;;;;;12.60;7.03;;;;;;;;;;4447620;32;20354;-54
2022/02/27 10:52:21;;;;;;;12.23;7.17;;;;;;;;;;4447605;32;20699;-55
2022/02/27 10:54:52;;;;;;;21.47;12.47;;;;;;;;;;4447872;32;20249;-54
2022/02/27 10:57:45;;;;;;;44.83;19.47;;;;;;;;;;4447607;32;20223;-55
2022/02/27 11:00:11;;;;;;;19.40;10.77;;;;;;;;;;4445466;32;20270;-56
2022/02/27 11:02:37;;;;;;;18.53;11.10;;;;;;;;;;4444316;32;20289;-57
2022/02/27 11:05:06;;;;;;;67.17;32.77;;;;;;;;;;4444959;32;20233;-55
2022/02/27 11:07:35;;;;;;;13.90;6.73;;;;;;;;;;4445726;32;20334;-55
2022/02/27 11:10:00;;;;;;;42.93;17.13;;;;;;;;;;4445862;32;20535;-55
2022/02/27 11:12:28;;;;;;;21.23;11.10;;;;;;;;;;4445245;32;20612;-55
2022/02/27 11:14:54;;;;;;;41.47;20.10;;;;;;;;;;4445076;32;20224;-55
2022/02/27 11:17:22;;;;;;;21.63;12.10;;;;;;;;;;4445416;32;20236;-55
2022/02/27 11:19:49;;;;;;;23.57;12.83;;;;;;;;;;4440260;32;20280;-56
2022/02/27 11:22:16;;;;;;;7.67;5.73;;;;;;;;;;4428637;32;20232;-55
2022/02/27 11:24:43;;;;;;;108.33;45.83;;;;;;;;;;4430176;32;20761;-55
2022/02/27 11:27:10;;;;;;;41.60;21.80;;;;;;;;;;4431305;32;20258;-56
2022/02/27 11:29:36;;;;;;;39.90;20.47;;;;;;;;;;4435909;32;20385;-57
2022/02/27 11:32:02;;;;;;;18.80;11.50;;;;;;;;;;4447322;32;20201;-55
2022/02/27 11:34:29;;;;;;;24.50;13.17;;;;;;;;;;4446688;32;20296;-55
2022/02/27 11:36:56;;;;;;;27.47;12.90;;;;;;;;;;4446307;32;20628;-57
2022/02/27 11:42:07;;;;;;;17.07;9.70;;;;;;;;;;4446758;32;20263;-55
2022/02/27 11:44:37;;;;;;;22.03;9.93;;;;;;;;;;4446769;32;20284;-55
2022/02/27 11:47:04;;;;;;;12.10;6.50;;;;;;;;;;4445417;32;20530;-55
2022/02/27 11:49:30;;;;;;;32.47;15.37;;;;;;;;;;4446412;32;20270;-55
2022/02/27 11:52:02;;;;;;;20.53;9.93;;;;;;;;;;4447019;32;20284;-56
2022/02/27 11:54:44;;;;;;;20.97;11.13;;;;;;;;;;4446806;32;20269;-56
2022/02/27 11:57:17;;;;;;;24.57;13.37;;;;;;;;;;4445271;32;20216;-56
2022/02/27 11:59:52;;;;;;;20.27;12.27;;;;;;;;;;4447040;32;20254;-56
2022/02/27 12:02:26;;;;;;;46.83;24.20;;;;;;;;;;4445860;32;20316;-57
2022/02/27 12:04:57;;;;;;;47.33;23.60;;;;;;;;;;4447053;32;20314;-56
2022/02/27 12:07:23;;;;;;;43.40;22.77;;;;;;;;;;4445485;32;20577;-56
2022/02/27 12:09:49;;;;;;;50.00;25.17;;;;;;;;;;4447279;32;20312;-55
2022/02/27 12:12:51;;;;;;;142.17;72.03;;;;;;;;;;4447203;32;20755;-54
2022/02/27 12:15:27;;;;;;;205.70;102.53;;;;;;;;;;4445984;32;20247;-55
2022/02/27 12:18:01;;;;;;;182.20;80.97;;;;;;;;;;4449451;32;20200;-54
2022/02/27 12:20:53;;;;;;;48.43;23.77;;;;;;;;;;4443510;32;20250;-54
2022/02/27 12:23:27;;;;;;;32.07;18.17;;;;;;;;;;4449341;32;20370;-55
2022/02/27 12:25:55;;;;;;;42.40;22.40;;;;;;;;;;4449136;32;20240;-55
2022/02/27 12:28:45;;;;;;;43.23;22.07;;;;;;;;;;4449263;32;20251;-55
2022/02/27 12:31:18;;;;;;;429.97;194.93;;;;;;;;;;4434337;32;20265;-55
2022/02/27 12:33:44;;;;;;;329.40;139.47;;;;;;;;;;4434150;32;20251;-55
2022/02/27 12:36:09;;;;;;;66.67;33.20;;;;;;;;;;4447077;32;20676;-55
2022/02/27 12:38:35;;;;;;;58.87;33.87;;;;;;;;;;4448912;32;20628;-55
2022/02/27 12:41:03;;;;;;;72.87;34.00;;;;;;;;;;4448941;32;20707;-56
2022/02/27 12:43:29;;;;;;;33.23;19.50;;;;;;;;;;4448176;32;20213;-56
2022/02/27 12:45:55;;;;;;;36.67;20.37;;;;;;;;;;4447789;32;20331;-55
2022/02/27 12:48:23;;;;;;;32.93;22.73;;;;;;;;;;4447493;32;20320;-56
2022/02/27 12:50:50;;;;;;;32.37;17.90;;;;;;;;;;4447524;32;20228;-55
2022/02/27 12:53:17;;;;;;;33.87;20.47;;;;;;;;;;4447835;32;20333;-55
2022/02/27 12:55:43;;;;;;;39.57;23.07;;;;;;;;;;4448190;32;20233;-56
2022/02/27 12:58:15;;;;;;;30.77;18.30;;;;;;;;;;4449631;32;20224;-56
2022/02/27 13:00:41;;;;;;;27.43;14.60;;;;;;;;;;4449462;32;20255;-55
2022/02/27 13:03:15;;;;;;;27.07;15.07;;;;;;;;;;4449398;32;20268;-55
2022/02/27 13:05:41;;;;;;;25.00;15.97;;;;;;;;;;4449267;32;20594;-55
2022/02/27 13:08:09;;;;;;;29.23;17.83;;;;;;;;;;4447544;32;20242;-55
2022/02/27 13:10:36;;;;;;;32.10;17.50;;;;;;;;;;4448930;32;20212;-56
2022/02/27 13:13:15;;;;;;;22.77;12.50;;;;;;;;;;4447813;32;20703;-55
2022/02/27 13:15:54;;;;;;;15.70;9.87;;;;;;;;;;4449211;32;20254;-55
2022/02/27 13:18:21;;;;;;;37.53;17.97;;;;;;;;;;4449164;32;20631;-56
2022/02/27 13:20:48;;;;;;;20.70;9.37;;;;;;;;;;4449184;32;20232;-55
2022/02/27 13:23:14;;;;;;;11.87;7.17;;;;;;;;;;4448686;32;20223;-56
2022/02/27 13:25:40;;;;;;;20.70;11.77;;;;;;;;;;4442114;32;20725;-55
2022/02/27 13:28:06;;;;;;;10.53;7.33;;;;;;;;;;4433447;32;20371;-56
2022/02/27 13:30:31;;;;;;;15.17;6.90;;;;;;;;;;4433374;32;20312;-55
2022/02/27 13:32:59;;;;;;;14.47;6.23;;;;;;;;;;4433495;32;20271;-56
2022/02/27 13:35:36;;;;;;;10.73;6.00;;;;;;;;;;4433652;32;20315;-56
2022/02/27 13:38:05;;;;;;;7.93;6.03;;;;;;;;;;4445707;32;20414;-55
2022/02/27 13:40:37;;;;;;;7.53;4.97;;;;;;;;;;4448894;32;20250;-56
2022/02/27 13:43:12;;;;;;;5.50;3.63;;;;;;;;;;4448108;32;20229;-56
2022/02/27 13:45:40;;;;;;;11.20;6.30;;;;;;;;;;4447622;32;20680;-56
2022/02/27 13:48:12;;;;;;;5.97;3.23;;;;;;;;;;4447479;32;20349;-56
2022/02/27 13:50:41;;;;;;;6.80;4.30;;;;;;;;;;4448391;32;20286;-56
2022/02/27 13:53:11;;;;;;;7.80;5.13;;;;;;;;;;4448642;32;20250;-55
2022/02/27 13:55:39;;;;;;;8.53;6.20;;;;;;;;;;4447299;32;20213;-55
2022/02/27 13:58:17;;;;;;;11.27;6.70;;;;;;;;;;4447226;32;20242;-56
2022/02/27 14:00:55;;;;;;;2.97;2.53;;;;;;;;;;4448574;32;20538;-55
2022/02/27 14:03:34;;;;;;;5.77;3.20;;;;;;;;;;4447319;32;20250;-57
2022/02/27 14:06:02;;;;;;;6.33;3.90;;;;;;;;;;4448402;32;20300;-57
2022/02/27 14:08:30;;;;;;;8.47;4.67;;;;;;;;;;4448251;32;20236;-55
2022/02/27 14:11:07;;;;;;;9.53;4.70;;;;;;;;;;4448265;32;20790;-55
2022/02/27 14:13:34;;;;;;;5.27;4.17;;;;;;;;;;4448248;32;20204;-55
2022/02/27 14:16:03;;;;;;;18.73;9.40;;;;;;;;;;4448397;32;20731;-56
2022/02/27 14:18:35;;;;;;;9.87;5.30;;;;;;;;;;4447916;32;20197;-55
2022/02/27 14:21:23;;;;;;;8.30;5.40;;;;;;;;;;4448349;32;20562;-57
2022/02/27 14:24:08;;;;;;;9.37;6.43;;;;;;;;;;4448008;32;20220;-56
2022/02/27 14:26:42;;;;;;;28.03;15.03;;;;;;;;;;4448011;32;20676;-56